sensor_id;sensor_type;location;lat;lon;timestamp;P1;durP1;ratioP1;P2;durP2;ratioP2
13493;SDS011;6819;50.886;4.332;2024-02-21T00:00:02;20.75;;;6.47;;
13493;SDS011;6819;50.886;4.332;2024-02-21T00:02:28;21.08;;;6.22;;
13493;SDS011;6819;50.886;4.332;2024-02-21T00:04:54;20.08;;;6.32;;
13493;SDS011;6819;50.886;4.332;2024-02-21T00:07:20;21.13;;;6.00;;
13493;SDS011;6819;50.886;4.332;2024-02-21T00:09:46;15.63;;;5.93;;
13493;SDS011;6819;50.886;4.332;2024-02-21T00:12:12;25.33;;;5.90;;
13493;SDS011;6819;50.886;4.332;2024-02-21T00:14:39;17.48;;;5.45;;
13493;SDS011;6819;50.886;4.332;2024-02-21T00:17:05;22.50;;;5.75;;
13493;SDS011;6819;50.886;4.332;2024-02-21T00:19:33;15.10;;;5.20;;
13493;SDS011;6819;50.886;4.332;2024-02-21T00:21:59;18.63;;;6.00;;
13493;SDS011;6819;50.886;4.332;2024-02-21T00:24:25;12.93;;;5.45;;
13493;SDS011;6819;50.886;4.332;2024-02-21T00:26:51;20.83;;;6.43;;
13493;SDS011;6819;50.886;4.332;2024-02-21T00:29:17;19.60;;;5.80;;
13493;SDS011;6819;50.886;4.332;2024-02-21T00:31:43;20.55;;;6.00;;
13493;SDS011;6819;50.886;4.332;2024-02-21T00:34:09;18.42;;;6.35;;
13493;SDS011;6819;50.886;4.332;2024-02-21T00:36:37;18.38;;;5.93;;
13493;SDS011;6819;50.886;4.332;2024-02-21T00:39:03;20.77;;;6.03;;
13493;SDS011;6819;50.886;4.332;2024-02-21T00:41:29;16.98;;;6.38;;
13493;SDS011;6819;50.886;4.332;2024-02-21T00:43:55;19.02;;;6.35;;
13493;SDS011;6819;50.886;4.332;2024-02-21T00:46:21;16.67;;;6.18;;
13493;SDS011;6819;50.886;4.332;2024-02-21T00:48:47;17.48;;;6.18;;
13493;SDS011;6819;50.886;4.332;2024-02-21T00:51:14;17.38;;;6.95;;
13493;SDS011;6819;50.886;4.332;2024-02-21T00:53:41;18.67;;;6.43;;
13493;SDS011;6819;50.886;4.332;2024-02-21T00:56:07;19.20;;;7.22;;
13493;SDS011;6819;50.886;4.332;2024-02-21T00:58:33;23.65;;;6.47;;
13493;SDS011;6819;50.886;4.332;2024-02-21T01:01:03;22.38;;;6.68;;
13493;SDS011;6819;50.886;4.332;2024-02-21T01:03:29;17.88;;;6.95;;
13493;SDS011;6819;50.886;4.332;2024-02-21T01:05:55;18.48;;;6.20;;
13493;SDS011;6819;50.886;4.332;2024-02-21T01:08:21;21.58;;;5.57;;
13493;SDS011;6819;50.886;4.332;2024-02-21T01:10:47;17.25;;;5.82;;
13493;SDS011;6819;50.886;4.332;2024-02-21T01:13:13;19.17;;;6.78;;
13493;SDS011;6819;50.886;4.332;2024-02-21T01:15:39;16.92;;;6.95;;
13493;SDS011;6819;50.886;4.332;2024-02-21T01:18:05;16.10;;;6.47;;
13493;SDS011;6819;50.886;4.332;2024-02-21T01:20:31;12.13;;;6.53;;
13493;SDS011;6819;50.886;4.332;2024-02-21T01:22:57;20.98;;;6.22;;
13493;SDS011;6819;50.886;4.332;2024-02-21T01:25:23;21.48;;;5.70;;
13493;SDS011;6819;50.886;4.332;2024-02-21T01:27:49;16.48;;;5.82;;
13493;SDS011;6819;50.886;4.332;2024-02-21T01:30:16;15.50;;;5.85;;
13493;SDS011;6819;50.886;4.332;2024-02-21T01:32:42;17.42;;;6.30;;
13493;SDS011;6819;50.886;4.332;2024-02-21T01:35:08;20.05;;;6.53;;
13493;SDS011;6819;50.886;4.332;2024-02-21T01:37:34;17.75;;;6.00;;
13493;SDS011;6819;50.886;4.332;2024-02-21T01:40:00;18.42;;;5.65;;
13493;SDS011;6819;50.886;4.332;2024-02-21T01:42:28;18.98;;;5.85;;
13493;SDS011;6819;50.886;4.332;2024-02-21T01:44:54;15.75;;;6.05;;
13493;SDS011;6819;50.886;4.332;2024-02-21T01:47:20;20.13;;;5.45;;
13493;SDS011;6819;50.886;4.332;2024-02-21T01:49:46;15.65;;;5.90;;
13493;SDS011;6819;50.886;4.332;2024-02-21T01:52:12;13.68;;;6.57;;
13493;SDS011;6819;50.886;4.332;2024-02-21T01:54:39;16.05;;;5.63;;
13493;SDS011;6819;50.886;4.332;2024-02-21T01:57:05;18.98;;;5.97;;
13493;SDS011;6819;50.886;4.332;2024-02-21T01:59:31;12.85;;;6.13;;
13493;SDS011;6819;50.886;4.332;2024-02-21T02:01:57;22.15;;;7.55;;
13493;SDS011;6819;50.886;4.332;2024-02-21T02:04:24;18.30;;;6.95;;
13493;SDS011;6819;50.886;4.332;2024-02-21T02:06:50;19.02;;;7.70;;
13493;SDS011;6819;50.886;4.332;2024-02-21T02:09:16;27.10;;;8.25;;
13493;SDS011;6819;50.886;4.332;2024-02-21T02:11:42;20.65;;;7.78;;
13493;SDS011;6819;50.886;4.332;2024-02-21T02:14:08;18.75;;;8.10;;
13493;SDS011;6819;50.886;4.332;2024-02-21T02:16:34;19.17;;;7.20;;
13493;SDS011;6819;50.886;4.332;2024-02-21T02:19:00;16.48;;;7.05;;
13493;SDS011;6819;50.886;4.332;2024-02-21T02:21:28;29.45;;;9.07;;
13493;SDS011;6819;50.886;4.332;2024-02-21T02:23:55;23.23;;;7.45;;
13493;SDS011;6819;50.886;4.332;2024-02-21T02:26:21;23.92;;;8.05;;
13493;SDS011;6819;50.886;4.332;2024-02-21T02:28:47;24.70;;;7.68;;
13493;SDS011;6819;50.886;4.332;2024-02-21T02:31:13;22.60;;;7.45;;
13493;SDS011;6819;50.886;4.332;2024-02-21T02:33:39;23.00;;;7.72;;
13493;SDS011;6819;50.886;4.332;2024-02-21T02:36:05;25.67;;;7.30;;
13493;SDS011;6819;50.886;4.332;2024-02-21T02:38:31;29.52;;;7.22;;
13493;SDS011;6819;50.886;4.332;2024-02-21T02:40:57;19.40;;;7.15;;
13493;SDS011;6819;50.886;4.332;2024-02-21T02:43:23;16.88;;;7.53;;
13493;SDS011;6819;50.886;4.332;2024-02-21T02:45:49;17.10;;;7.32;;
13493;SDS011;6819;50.886;4.332;2024-02-21T02:48:15;20.65;;;7.82;;
13493;SDS011;6819;50.886;4.332;2024-02-21T02:50:41;20.83;;;7.75;;
13493;SDS011;6819;50.886;4.332;2024-02-21T02:53:07;18.95;;;7.90;;
13493;SDS011;6819;50.886;4.332;2024-02-21T02:55:33;23.45;;;8.38;;
13493;SDS011;6819;50.886;4.332;2024-02-21T02:58:00;25.83;;;7.72;;
13493;SDS011;6819;50.886;4.332;2024-02-21T03:00:26;24.42;;;8.68;;
13493;SDS011;6819;50.886;4.332;2024-02-21T03:02:52;18.67;;;7.05;;
13493;SDS011;6819;50.886;4.332;2024-02-21T03:05:19;19.25;;;7.88;;
13493;SDS011;6819;50.886;4.332;2024-02-21T03:07:45;19.75;;;7.80;;
13493;SDS011;6819;50.886;4.332;2024-02-21T03:10:12;23.10;;;7.60;;
13493;SDS011;6819;50.886;4.332;2024-02-21T03:12:38;29.85;;;9.80;;
13493;SDS011;6819;50.886;4.332;2024-02-21T03:15:04;19.35;;;7.13;;
13493;SDS011;6819;50.886;4.332;2024-02-21T03:17:31;23.27;;;7.80;;
13493;SDS011;6819;50.886;4.332;2024-02-21T03:19:57;23.00;;;8.35;;
13493;SDS011;6819;50.886;4.332;2024-02-21T03:22:30;22.92;;;7.38;;
13493;SDS011;6819;50.886;4.332;2024-02-21T03:24:56;23.65;;;7.57;;
13493;SDS011;6819;50.886;4.332;2024-02-21T03:27:22;18.60;;;7.68;;
13493;SDS011;6819;50.886;4.332;2024-02-21T03:29:48;21.83;;;8.35;;
13493;SDS011;6819;50.886;4.332;2024-02-21T03:32:14;24.25;;;7.63;;
13493;SDS011;6819;50.886;4.332;2024-02-21T03:34:40;24.40;;;6.80;;
13493;SDS011;6819;50.886;4.332;2024-02-21T03:37:06;27.15;;;7.70;;
13493;SDS011;6819;50.886;4.332;2024-02-21T03:39:32;22.23;;;8.63;;
13493;SDS011;6819;50.886;4.332;2024-02-21T03:41:58;19.48;;;8.40;;
13493;SDS011;6819;50.886;4.332;2024-02-21T03:44:30;20.52;;;7.72;;
13493;SDS011;6819;50.886;4.332;2024-02-21T03:46:56;23.98;;;8.02;;
13493;SDS011;6819;50.886;4.332;2024-02-21T03:49:22;15.52;;;7.63;;
13493;SDS011;6819;50.886;4.332;2024-02-21T03:51:48;21.75;;;8.27;;
13493;SDS011;6819;50.886;4.332;2024-02-21T03:54:14;19.40;;;7.20;;
13493;SDS011;6819;50.886;4.332;2024-02-21T03:56:40;17.00;;;7.68;;
13493;SDS011;6819;50.886;4.332;2024-02-21T03:59:07;19.63;;;8.15;;
13493;SDS011;6819;50.886;4.332;2024-02-21T04:01:36;17.95;;;7.82;;
13493;SDS011;6819;50.886;4.332;2024-02-21T04:04:02;18.50;;;7.88;;
13493;SDS011;6819;50.886;4.332;2024-02-21T04:06:28;19.00;;;7.53;;
13493;SDS011;6819;50.886;4.332;2024-02-21T04:08:54;21.45;;;8.23;;
13493;SDS011;6819;50.886;4.332;2024-02-21T04:11:20;25.25;;;8.38;;
13493;SDS011;6819;50.886;4.332;2024-02-21T04:13:46;17.92;;;8.18;;
13493;SDS011;6819;50.886;4.332;2024-02-21T04:16:16;20.13;;;8.00;;
13493;SDS011;6819;50.886;4.332;2024-02-21T04:18:42;22.33;;;8.85;;
13493;SDS011;6819;50.886;4.332;2024-02-21T04:21:08;20.25;;;7.93;;
13493;SDS011;6819;50.886;4.332;2024-02-21T04:23:35;25.33;;;7.50;;
13493;SDS011;6819;50.886;4.332;2024-02-21T04:26:01;18.70;;;7.63;;
13493;SDS011;6819;50.886;4.332;2024-02-21T04:28:27;25.38;;;8.23;;
13493;SDS011;6819;50.886;4.332;2024-02-21T04:30:53;16.63;;;7.28;;
13493;SDS011;6819;50.886;4.332;2024-02-21T04:33:19;21.77;;;7.05;;
13493;SDS011;6819;50.886;4.332;2024-02-21T04:35:45;27.65;;;8.15;;
13493;SDS011;6819;50.886;4.332;2024-02-21T04:38:11;22.10;;;8.32;;
13493;SDS011;6819;50.886;4.332;2024-02-21T04:40:37;20.13;;;7.72;;
13493;SDS011;6819;50.886;4.332;2024-02-21T04:43:03;20.70;;;7.65;;
13493;SDS011;6819;50.886;4.332;2024-02-21T04:45:29;16.60;;;7.88;;
13493;SDS011;6819;50.886;4.332;2024-02-21T04:47:55;18.17;;;6.60;;
13493;SDS011;6819;50.886;4.332;2024-02-21T04:50:21;24.98;;;7.68;;
13493;SDS011;6819;50.886;4.332;2024-02-21T04:52:47;13.07;;;7.00;;
13493;SDS011;6819;50.886;4.332;2024-02-21T04:55:13;18.38;;;8.35;;
13493;SDS011;6819;50.886;4.332;2024-02-21T04:57:39;17.60;;;6.93;;
13493;SDS011;6819;50.886;4.332;2024-02-21T05:00:06;16.67;;;6.90;;
13493;SDS011;6819;50.886;4.332;2024-02-21T05:02:32;17.58;;;7.22;;
13493;SDS011;6819;50.886;4.332;2024-02-21T05:04:58;15.27;;;6.57;;
13493;SDS011;6819;50.886;4.332;2024-02-21T05:07:24;17.30;;;6.95;;
13493;SDS011;6819;50.886;4.332;2024-02-21T05:09:50;16.05;;;7.15;;
13493;SDS011;6819;50.886;4.332;2024-02-21T05:12:16;11.90;;;6.40;;
13493;SDS011;6819;50.886;4.332;2024-02-21T05:14:42;17.58;;;6.85;;
13493;SDS011;6819;50.886;4.332;2024-02-21T05:17:08;20.05;;;7.07;;
13493;SDS011;6819;50.886;4.332;2024-02-21T05:19:34;15.55;;;7.05;;
13493;SDS011;6819;50.886;4.332;2024-02-21T05:22:00;18.50;;;6.90;;
13493;SDS011;6819;50.886;4.332;2024-02-21T05:24:26;17.52;;;6.90;;
13493;SDS011;6819;50.886;4.332;2024-02-21T05:26:53;19.25;;;6.68;;
13493;SDS011;6819;50.886;4.332;2024-02-21T05:29:19;14.90;;;6.60;;
13493;SDS011;6819;50.886;4.332;2024-02-21T05:34:18;11.77;;;6.35;;
13493;SDS011;6819;50.886;4.332;2024-02-21T05:36:44;14.02;;;6.32;;
13493;SDS011;6819;50.886;4.332;2024-02-21T05:39:10;12.23;;;5.97;;
13493;SDS011;6819;50.886;4.332;2024-02-21T05:41:37;14.23;;;6.63;;
13493;SDS011;6819;50.886;4.332;2024-02-21T05:44:03;13.98;;;6.15;;
13493;SDS011;6819;50.886;4.332;2024-02-21T05:46:29;12.07;;;5.40;;
13493;SDS011;6819;50.886;4.332;2024-02-21T05:48:55;13.50;;;5.50;;
13493;SDS011;6819;50.886;4.332;2024-02-21T05:51:21;13.00;;;6.10;;
13493;SDS011;6819;50.886;4.332;2024-02-21T05:53:47;16.25;;;6.05;;
13493;SDS011;6819;50.886;4.332;2024-02-21T05:56:13;12.82;;;5.75;;
13493;SDS011;6819;50.886;4.332;2024-02-21T05:58:39;13.20;;;5.38;;
13493;SDS011;6819;50.886;4.332;2024-02-21T06:01:05;12.63;;;5.55;;
13493;SDS011;6819;50.886;4.332;2024-02-21T06:03:32;12.77;;;5.38;;
13493;SDS011;6819;50.886;4.332;2024-02-21T06:05:58;11.55;;;5.72;;
13493;SDS011;6819;50.886;4.332;2024-02-21T06:08:24;14.52;;;5.47;;
13493;SDS011;6819;50.886;4.332;2024-02-21T06:10:50;10.95;;;5.03;;
13493;SDS011;6819;50.886;4.332;2024-02-21T06:13:20;9.70;;;4.93;;
13493;SDS011;6819;50.886;4.332;2024-02-21T06:15:47;10.07;;;5.13;;
13493;SDS011;6819;50.886;4.332;2024-02-21T06:18:14;16.27;;;5.72;;
13493;SDS011;6819;50.886;4.332;2024-02-21T06:20:40;11.38;;;4.97;;
13493;SDS011;6819;50.886;4.332;2024-02-21T06:23:07;11.02;;;5.28;;
13493;SDS011;6819;50.886;4.332;2024-02-21T06:25:33;8.70;;;5.30;;
13493;SDS011;6819;50.886;4.332;2024-02-21T06:27:59;11.98;;;5.82;;
13493;SDS011;6819;50.886;4.332;2024-02-21T06:30:25;12.70;;;5.20;;
13493;SDS011;6819;50.886;4.332;2024-02-21T06:32:51;12.80;;;5.63;;
13493;SDS011;6819;50.886;4.332;2024-02-21T06:35:17;8.90;;;5.30;;
13493;SDS011;6819;50.886;4.332;2024-02-21T06:37:43;16.15;;;6.00;;
13493;SDS011;6819;50.886;4.332;2024-02-21T06:40:15;11.73;;;5.63;;
13493;SDS011;6819;50.886;4.332;2024-02-21T06:42:44;13.57;;;7.10;;
13493;SDS011;6819;50.886;4.332;2024-02-21T06:45:10;15.70;;;6.75;;
13493;SDS011;6819;50.886;4.332;2024-02-21T06:47:36;17.02;;;7.05;;
13493;SDS011;6819;50.886;4.332;2024-02-21T06:50:02;14.15;;;6.72;;
13493;SDS011;6819;50.886;4.332;2024-02-21T06:52:28;13.15;;;6.95;;
13493;SDS011;6819;50.886;4.332;2024-02-21T06:54:56;16.27;;;7.22;;
13493;SDS011;6819;50.886;4.332;2024-02-21T06:57:22;18.25;;;7.68;;
13493;SDS011;6819;50.886;4.332;2024-02-21T06:59:48;12.38;;;6.93;;
13493;SDS011;6819;50.886;4.332;2024-02-21T07:02:14;17.05;;;7.68;;
13493;SDS011;6819;50.886;4.332;2024-02-21T07:04:40;24.73;;;7.60;;
13493;SDS011;6819;50.886;4.332;2024-02-21T07:07:06;17.30;;;7.40;;
13493;SDS011;6819;50.886;4.332;2024-02-21T07:09:32;15.85;;;7.65;;
13493;SDS011;6819;50.886;4.332;2024-02-21T07:11:59;14.13;;;8.02;;
13493;SDS011;6819;50.886;4.332;2024-02-21T07:14:25;16.80;;;8.35;;
13493;SDS011;6819;50.886;4.332;2024-02-21T07:16:51;19.08;;;8.40;;
13493;SDS011;6819;50.886;4.332;2024-02-21T07:19:17;14.82;;;9.27;;
13493;SDS011;6819;50.886;4.332;2024-02-21T07:21:43;21.33;;;9.30;;
13493;SDS011;6819;50.886;4.332;2024-02-21T07:24:09;27.70;;;10.80;;
13493;SDS011;6819;50.886;4.332;2024-02-21T07:26:35;21.50;;;11.05;;
13493;SDS011;6819;50.886;4.332;2024-02-21T07:29:01;24.15;;;11.13;;
13493;SDS011;6819;50.886;4.332;2024-02-21T07:31:27;21.00;;;11.30;;
13493;SDS011;6819;50.886;4.332;2024-02-21T07:33:53;20.20;;;9.63;;
13493;SDS011;6819;50.886;4.332;2024-02-21T07:36:28;18.83;;;9.43;;
13493;SDS011;6819;50.886;4.332;2024-02-21T07:38:55;20.25;;;8.80;;
13493;SDS011;6819;50.886;4.332;2024-02-21T07:41:21;24.98;;;9.15;;
13493;SDS011;6819;50.886;4.332;2024-02-21T07:43:47;20.17;;;9.55;;
13493;SDS011;6819;50.886;4.332;2024-02-21T07:46:13;17.15;;;8.82;;
13493;SDS011;6819;50.886;4.332;2024-02-21T07:48:39;18.92;;;9.45;;
13493;SDS011;6819;50.886;4.332;2024-02-21T07:51:05;20.35;;;9.57;;
13493;SDS011;6819;50.886;4.332;2024-02-21T07:53:31;15.30;;;8.63;;
13493;SDS011;6819;50.886;4.332;2024-02-21T07:55:57;12.60;;;7.72;;
13493;SDS011;6819;50.886;4.332;2024-02-21T07:58:23;16.35;;;8.02;;
13493;SDS011;6819;50.886;4.332;2024-02-21T08:00:49;16.42;;;7.45;;
13493;SDS011;6819;50.886;4.332;2024-02-21T08:03:15;13.85;;;6.95;;
13493;SDS011;6819;50.886;4.332;2024-02-21T08:05:42;14.52;;;6.75;;
13493;SDS011;6819;50.886;4.332;2024-02-21T08:08:08;12.95;;;6.85;;
13493;SDS011;6819;50.886;4.332;2024-02-21T08:10:35;13.93;;;7.32;;
13493;SDS011;6819;50.886;4.332;2024-02-21T08:13:01;11.27;;;6.18;;
13493;SDS011;6819;50.886;4.332;2024-02-21T08:15:27;16.17;;;7.25;;
13493;SDS011;6819;50.886;4.332;2024-02-21T08:17:56;11.30;;;6.13;;
13493;SDS011;6819;50.886;4.332;2024-02-21T08:20:24;13.23;;;5.50;;
13493;SDS011;6819;50.886;4.332;2024-02-21T08:22:51;13.02;;;5.72;;
13493;SDS011;6819;50.886;4.332;2024-02-21T08:25:17;12.55;;;5.32;;
13493;SDS011;6819;50.886;4.332;2024-02-21T08:27:43;14.25;;;5.35;;
13493;SDS011;6819;50.886;4.332;2024-02-21T08:30:10;9.65;;;5.13;;
13493;SDS011;6819;50.886;4.332;2024-02-21T08:32:36;10.45;;;4.90;;
13493;SDS011;6819;50.886;4.332;2024-02-21T08:35:03;11.27;;;5.07;;
13493;SDS011;6819;50.886;4.332;2024-02-21T08:37:30;9.63;;;5.03;;
13493;SDS011;6819;50.886;4.332;2024-02-21T08:39:56;7.35;;;4.53;;
13493;SDS011;6819;50.886;4.332;2024-02-21T08:42:22;12.85;;;4.53;;
13493;SDS011;6819;50.886;4.332;2024-02-21T08:44:48;10.38;;;4.38;;
13493;SDS011;6819;50.886;4.332;2024-02-21T08:47:14;9.70;;;4.53;;
13493;SDS011;6819;50.886;4.332;2024-02-21T08:49:40;10.20;;;4.45;;
13493;SDS011;6819;50.886;4.332;2024-02-21T08:52:06;12.90;;;4.43;;
13493;SDS011;6819;50.886;4.332;2024-02-21T08:54:32;9.43;;;4.32;;
13493;SDS011;6819;50.886;4.332;2024-02-21T08:56:59;10.30;;;4.75;;
13493;SDS011;6819;50.886;4.332;2024-02-21T08:59:25;6.60;;;3.50;;
13493;SDS011;6819;50.886;4.332;2024-02-21T09:01:51;5.63;;;3.92;;
13493;SDS011;6819;50.886;4.332;2024-02-21T09:04:18;7.60;;;3.65;;
13493;SDS011;6819;50.886;4.332;2024-02-21T09:06:44;7.40;;;3.80;;
13493;SDS011;6819;50.886;4.332;2024-02-21T09:09:11;13.55;;;3.35;;
13493;SDS011;6819;50.886;4.332;2024-02-21T09:11:37;11.93;;;3.95;;
13493;SDS011;6819;50.886;4.332;2024-02-21T09:14:04;5.70;;;3.40;;
13493;SDS011;6819;50.886;4.332;2024-02-21T09:16:34;9.25;;;3.88;;
13493;SDS011;6819;50.886;4.332;2024-02-21T09:19:00;10.57;;;3.63;;
13493;SDS011;6819;50.886;4.332;2024-02-21T09:21:26;6.53;;;3.70;;
13493;SDS011;6819;50.886;4.332;2024-02-21T09:23:53;8.27;;;3.50;;
13493;SDS011;6819;50.886;4.332;2024-02-21T09:26:19;8.60;;;3.38;;
13493;SDS011;6819;50.886;4.332;2024-02-21T09:28:45;12.32;;;3.70;;
13493;SDS011;6819;50.886;4.332;2024-02-21T09:31:11;7.45;;;3.72;;
13493;SDS011;6819;50.886;4.332;2024-02-21T09:33:37;7.90;;;3.30;;
13493;SDS011;6819;50.886;4.332;2024-02-21T09:36:03;10.98;;;4.03;;
13493;SDS011;6819;50.886;4.332;2024-02-21T09:38:31;7.80;;;3.67;;
13493;SDS011;6819;50.886;4.332;2024-02-21T09:41:04;13.93;;;3.70;;
13493;SDS011;6819;50.886;4.332;2024-02-21T09:43:34;6.47;;;3.55;;
13493;SDS011;6819;50.886;4.332;2024-02-21T09:46:00;11.95;;;3.92;;
13493;SDS011;6819;50.886;4.332;2024-02-21T09:50:55;8.32;;;3.33;;
13493;SDS011;6819;50.886;4.332;2024-02-21T09:53:22;12.35;;;3.60;;
13493;SDS011;6819;50.886;4.332;2024-02-21T09:55:50;8.98;;;3.88;;
13493;SDS011;6819;50.886;4.332;2024-02-21T09:58:16;11.38;;;3.72;;
13493;SDS011;6819;50.886;4.332;2024-02-21T10:00:42;7.85;;;3.30;;
13493;SDS011;6819;50.886;4.332;2024-02-21T10:03:08;7.03;;;3.53;;
13493;SDS011;6819;50.886;4.332;2024-02-21T10:05:34;7.28;;;3.53;;
13493;SDS011;6819;50.886;4.332;2024-02-21T10:08:01;7.63;;;3.22;;
13493;SDS011;6819;50.886;4.332;2024-02-21T10:10:27;10.90;;;3.65;;
13493;SDS011;6819;50.886;4.332;2024-02-21T10:12:54;5.75;;;3.20;;
13493;SDS011;6819;50.886;4.332;2024-02-21T10:15:21;11.15;;;3.70;;
13493;SDS011;6819;50.886;4.332;2024-02-21T10:18:00;13.88;;;3.35;;
13493;SDS011;6819;50.886;4.332;2024-02-21T10:20:26;6.32;;;3.25;;
13493;SDS011;6819;50.886;4.332;2024-02-21T10:23:03;13.80;;;3.75;;
13493;SDS011;6819;50.886;4.332;2024-02-21T10:25:33;5.90;;;2.70;;
13493;SDS011;6819;50.886;4.332;2024-02-21T10:27:59;11.10;;;3.35;;
13493;SDS011;6819;50.886;4.332;2024-02-21T10:30:25;7.97;;;4.13;;
13493;SDS011;6819;50.886;4.332;2024-02-21T10:32:54;6.30;;;3.10;;
13493;SDS011;6819;50.886;4.332;2024-02-21T10:35:30;10.68;;;3.53;;
13493;SDS011;6819;50.886;4.332;2024-02-21T10:37:56;17.92;;;4.43;;
13493;SDS011;6819;50.886;4.332;2024-02-21T10:40:29;8.90;;;3.85;;
13493;SDS011;6819;50.886;4.332;2024-02-21T10:43:02;9.70;;;3.50;;
13493;SDS011;6819;50.886;4.332;2024-02-21T10:45:35;8.90;;;3.13;;
13493;SDS011;6819;50.886;4.332;2024-02-21T10:48:24;9.90;;;4.00;;
13493;SDS011;6819;50.886;4.332;2024-02-21T10:58:59;11.77;;;3.67;;
13493;SDS011;6819;50.886;4.332;2024-02-21T11:01:26;10.70;;;3.45;;
13493;SDS011;6819;50.886;4.332;2024-02-21T11:03:54;10.15;;;3.80;;
13493;SDS011;6819;50.886;4.332;2024-02-21T11:06:21;10.75;;;3.50;;
13493;SDS011;6819;50.886;4.332;2024-02-21T11:08:47;7.40;;;3.35;;
13493;SDS011;6819;50.886;4.332;2024-02-21T11:11:24;9.15;;;3.08;;
13493;SDS011;6819;50.886;4.332;2024-02-21T11:13:50;7.30;;;3.38;;
13493;SDS011;6819;50.886;4.332;2024-02-21T11:16:22;5.57;;;3.05;;
13493;SDS011;6819;50.886;4.332;2024-02-21T11:18:48;8.68;;;3.33;;
13493;SDS011;6819;50.886;4.332;2024-02-21T11:21:15;7.75;;;3.28;;
13493;SDS011;6819;50.886;4.332;2024-02-21T11:23:41;10.77;;;3.50;;
13493;SDS011;6819;50.886;4.332;2024-02-21T11:26:10;7.78;;;2.83;;
13493;SDS011;6819;50.886;4.332;2024-02-21T11:28:44;4.15;;;2.55;;
13493;SDS011;6819;50.886;4.332;2024-02-21T11:31:11;11.30;;;3.28;;
13493;SDS011;6819;50.886;4.332;2024-02-21T11:33:43;12.93;;;3.50;;
13493;SDS011;6819;50.886;4.332;2024-02-21T11:36:09;11.07;;;3.03;;
13493;SDS011;6819;50.886;4.332;2024-02-21T11:38:35;9.30;;;3.22;;
13493;SDS011;6819;50.886;4.332;2024-02-21T11:41:01;6.47;;;2.90;;
13493;SDS011;6819;50.886;4.332;2024-02-21T11:43:27;7.13;;;2.90;;
13493;SDS011;6819;50.886;4.332;2024-02-21T11:46:00;8.73;;;3.30;;
13493;SDS011;6819;50.886;4.332;2024-02-21T11:48:28;8.77;;;3.42;;
13493;SDS011;6819;50.886;4.332;2024-02-21T11:50:55;7.05;;;2.90;;
13493;SDS011;6819;50.886;4.332;2024-02-21T11:53:21;7.13;;;3.50;;
13493;SDS011;6819;50.886;4.332;2024-02-21T11:55:47;9.88;;;3.70;;
13493;SDS011;6819;50.886;4.332;2024-02-21T11:58:14;8.10;;;3.90;;
13493;SDS011;6819;50.886;4.332;2024-02-21T12:00:40;6.75;;;3.03;;
13493;SDS011;6819;50.886;4.332;2024-02-21T12:03:07;8.15;;;3.60;;
13493;SDS011;6819;50.886;4.332;2024-02-21T12:05:33;12.95;;;3.60;;
13493;SDS011;6819;50.886;4.332;2024-02-21T12:08:00;11.88;;;4.07;;
13493;SDS011;6819;50.886;4.332;2024-02-21T12:10:26;10.00;;;3.60;;
13493;SDS011;6819;50.886;4.332;2024-02-21T12:12:52;5.65;;;3.40;;
13493;SDS011;6819;50.886;4.332;2024-02-21T12:15:23;8.98;;;3.40;;
13493;SDS011;6819;50.886;4.332;2024-02-21T12:17:49;13.32;;;3.97;;
13493;SDS011;6819;50.886;4.332;2024-02-21T12:20:16;8.32;;;4.10;;
13493;SDS011;6819;50.886;4.332;2024-02-21T12:22:45;16.60;;;3.88;;
13493;SDS011;6819;50.886;4.332;2024-02-21T12:25:17;11.50;;;4.03;;
13493;SDS011;6819;50.886;4.332;2024-02-21T12:27:44;11.15;;;4.05;;
13493;SDS011;6819;50.886;4.332;2024-02-21T12:30:10;8.00;;;4.00;;
13493;SDS011;6819;50.886;4.332;2024-02-21T12:32:36;10.57;;;4.28;;
13493;SDS011;6819;50.886;4.332;2024-02-21T12:35:03;9.88;;;3.70;;
13493;SDS011;6819;50.886;4.332;2024-02-21T12:37:29;10.85;;;5.13;;
13493;SDS011;6819;50.886;4.332;2024-02-21T12:39:55;14.32;;;5.80;;
13493;SDS011;6819;50.886;4.332;2024-02-21T12:42:21;7.78;;;4.35;;
13493;SDS011;6819;50.886;4.332;2024-02-21T12:44:48;10.57;;;4.68;;
13493;SDS011;6819;50.886;4.332;2024-02-21T12:47:14;10.38;;;5.30;;
13493;SDS011;6819;50.886;4.332;2024-02-21T12:49:40;8.88;;;4.78;;
13493;SDS011;6819;50.886;4.332;2024-02-21T12:52:07;10.32;;;4.47;;
13493;SDS011;6819;50.886;4.332;2024-02-21T12:54:33;9.52;;;4.30;;
13493;SDS011;6819;50.886;4.332;2024-02-21T12:56:59;8.90;;;4.13;;
13493;SDS011;6819;50.886;4.332;2024-02-21T12:59:28;9.65;;;3.80;;
13493;SDS011;6819;50.886;4.332;2024-02-21T13:01:54;10.27;;;4.53;;
13493;SDS011;6819;50.886;4.332;2024-02-21T13:04:20;8.13;;;3.47;;
13493;SDS011;6819;50.886;4.332;2024-02-21T13:06:47;13.52;;;3.97;;
13493;SDS011;6819;50.886;4.332;2024-02-21T13:09:14;9.85;;;4.55;;
13493;SDS011;6819;50.886;4.332;2024-02-21T13:11:40;9.85;;;4.10;;
13493;SDS011;6819;50.886;4.332;2024-02-21T13:14:06;10.00;;;3.83;;
13493;SDS011;6819;50.886;4.332;2024-02-21T13:16:33;8.73;;;4.07;;
13493;SDS011;6819;50.886;4.332;2024-02-21T13:19:07;10.77;;;4.10;;
13493;SDS011;6819;50.886;4.332;2024-02-21T13:21:34;13.15;;;3.72;;
13493;SDS011;6819;50.886;4.332;2024-02-21T13:24:00;7.10;;;3.40;;
13493;SDS011;6819;50.886;4.332;2024-02-21T13:26:26;7.25;;;3.38;;
13493;SDS011;6819;50.886;4.332;2024-02-21T13:28:52;15.45;;;3.90;;
13493;SDS011;6819;50.886;4.332;2024-02-21T13:31:18;6.28;;;3.58;;
13493;SDS011;6819;50.886;4.332;2024-02-21T13:33:44;7.50;;;3.25;;
13493;SDS011;6819;50.886;4.332;2024-02-21T13:36:10;10.07;;;3.70;;
13493;SDS011;6819;50.886;4.332;2024-02-21T13:38:36;9.30;;;3.83;;
13493;SDS011;6819;50.886;4.332;2024-02-21T13:41:03;9.15;;;3.90;;
13493;SDS011;6819;50.886;4.332;2024-02-21T13:43:30;6.95;;;3.50;;
13493;SDS011;6819;50.886;4.332;2024-02-21T13:45:59;8.75;;;3.58;;
13493;SDS011;6819;50.886;4.332;2024-02-21T13:48:27;9.65;;;3.67;;
13493;SDS011;6819;50.886;4.332;2024-02-21T13:50:54;12.02;;;4.10;;
13493;SDS011;6819;50.886;4.332;2024-02-21T13:53:20;16.15;;;4.13;;
13493;SDS011;6819;50.886;4.332;2024-02-21T13:55:47;10.07;;;3.85;;
13493;SDS011;6819;50.886;4.332;2024-02-21T13:58:14;11.15;;;4.38;;
13493;SDS011;6819;50.886;4.332;2024-02-21T14:00:40;11.30;;;4.30;;
13493;SDS011;6819;50.886;4.332;2024-02-21T14:03:06;11.55;;;4.28;;
13493;SDS011;6819;50.886;4.332;2024-02-21T14:05:33;12.48;;;5.30;;
13493;SDS011;6819;50.886;4.332;2024-02-21T14:07:59;7.57;;;3.60;;
13493;SDS011;6819;50.886;4.332;2024-02-21T14:10:25;11.32;;;4.30;;
13493;SDS011;6819;50.886;4.332;2024-02-21T14:12:51;12.05;;;5.60;;
13493;SDS011;6819;50.886;4.332;2024-02-21T14:15:17;12.57;;;4.43;;
13493;SDS011;6819;50.886;4.332;2024-02-21T14:17:43;10.57;;;4.47;;
13493;SDS011;6819;50.886;4.332;2024-02-21T14:20:09;7.35;;;3.88;;
13493;SDS011;6819;50.886;4.332;2024-02-21T14:22:35;16.08;;;4.57;;
13493;SDS011;6819;50.886;4.332;2024-02-21T14:25:03;11.95;;;4.38;;
13493;SDS011;6819;50.886;4.332;2024-02-21T14:27:30;8.15;;;4.18;;
13493;SDS011;6819;50.886;4.332;2024-02-21T14:29:56;6.68;;;4.35;;
13493;SDS011;6819;50.886;4.332;2024-02-21T14:32:22;7.53;;;4.30;;
13493;SDS011;6819;50.886;4.332;2024-02-21T14:34:49;10.15;;;4.20;;
13493;SDS011;6819;50.886;4.332;2024-02-21T14:37:15;7.47;;;4.07;;
13493;SDS011;6819;50.886;4.332;2024-02-21T14:39:41;9.00;;;4.22;;
13493;SDS011;6819;50.886;4.332;2024-02-21T14:42:08;10.30;;;4.68;;
13493;SDS011;6819;50.886;4.332;2024-02-21T14:44:37;7.93;;;3.80;;
13493;SDS011;6819;50.886;4.332;2024-02-21T14:47:03;13.43;;;4.38;;
13493;SDS011;6819;50.886;4.332;2024-02-21T14:49:29;7.80;;;3.92;;
13493;SDS011;6819;50.886;4.332;2024-02-21T14:51:56;9.27;;;3.95;;
13493;SDS011;6819;50.886;4.332;2024-02-21T14:54:22;7.05;;;4.00;;
13493;SDS011;6819;50.886;4.332;2024-02-21T14:56:48;9.68;;;3.72;;
13493;SDS011;6819;50.886;4.332;2024-02-21T14:59:15;11.02;;;4.25;;